createdAt,value
2023-02-20T00:00:13.911Z,5.3
2023-02-20T00:08:31.468Z,5.3
2023-02-20T00:10:35.067Z,5.3
2023-02-20T00:12:38.710Z,5.4
2023-02-20T00:14:42.344Z,5.4
2023-02-20T00:16:45.954Z,5.4
2023-02-20T00:18:49.548Z,5.4
2023-02-20T00:20:53.248Z,5.4
2023-02-20T00:22:59.867Z,5.4
2023-02-20T00:25:03.504Z,5.4
2023-02-20T00:27:07.145Z,5.4
2023-02-20T00:28:10.455Z,5.4
2023-02-20T00:30:14.191Z,5.5
2023-02-20T00:32:17.766Z,5.5
2023-02-20T00:36:28.058Z,5.6
2023-02-20T00:38:31.690Z,5.6
2023-02-20T00:40:35.307Z,5.6
2023-02-20T00:42:38.934Z,5.7
2023-02-20T00:44:42.532Z,5.7
2023-02-20T00:46:46.273Z,5.7
2023-02-20T00:48:49.978Z,5.7
2023-02-20T00:50:56.495Z,5.8
2023-02-20T00:53:00.158Z,5.8
2023-02-20T00:55:03.753Z,5.8
2023-02-20T00:57:07.371Z,5.8
2023-02-20T00:59:11.018Z,5.9
2023-02-20T01:01:16.219Z,5.8
2023-02-20T01:03:19.772Z,5.8
2023-02-20T01:05:26.457Z,5.9
2023-02-20T01:07:30.086Z,5.9
2023-02-20T01:09:33.706Z,5.9
2023-02-20T01:11:37.336Z,5.9
2023-02-20T01:13:40.967Z,5.9
2023-02-20T01:15:44.613Z,5.9
2023-02-20T01:17:48.193Z,5.8
2023-02-20T01:19:54.899Z,5.8
2023-02-20T01:21:58.510Z,5.8
2023-02-20T01:24:02.126Z,5.8
2023-02-20T01:28:29.991Z,5.7
2023-02-20T01:30:33.641Z,5.6
2023-02-20T01:34:43.894Z,5.7
2023-02-20T01:36:47.537Z,5.7
2023-02-20T01:38:51.138Z,5.7
2023-02-20T01:40:54.765Z,5.6
2023-02-20T01:42:58.385Z,5.6
2023-02-20T01:47:08.719Z,5.6
2023-02-20T01:55:23.216Z,5.5
2023-02-20T01:57:26.851Z,5.6
2023-02-20T02:01:37.151Z,5.6
2023-02-20T02:03:40.721Z,5.5
2023-02-20T02:05:44.389Z,5.5
2023-02-20T02:07:48.079Z,5.5
2023-02-20T02:09:51.631Z,5.6
2023-02-20T02:11:55.246Z,5.5
2023-02-20T02:13:58.892Z,5.5
2023-02-20T02:16:05.645Z,5.5
2023-02-20T02:18:09.213Z,5.5
2023-02-20T02:20:12.824Z,5.5
2023-02-20T02:21:16.178Z,5.5
2023-02-20T02:25:23.404Z,5.5
2023-02-20T02:27:27.048Z,5.5
2023-02-20T02:29:33.723Z,5.5
2023-02-20T02:31:37.461Z,5.4
2023-02-20T02:33:41.001Z,5.5
2023-02-20T02:35:44.604Z,5.5
2023-02-20T02:37:48.238Z,5.5
2023-02-20T02:39:51.829Z,5.4
2023-02-20T02:41:55.478Z,5.5
2023-02-20T02:44:02.204Z,5.4
2023-02-20T02:46:05.832Z,5.4
2023-02-20T02:48:09.416Z,5.4
2023-02-20T02:50:13.030Z,5.5
2023-02-20T02:52:16.659Z,5.5
2023-02-20T02:54:20.297Z,5.6
2023-02-20T02:56:23.926Z,5.7
2023-02-20T03:02:37.930Z,5.7
2023-02-20T03:04:41.488Z,5.7
2023-02-20T03:06:45.088Z,5.7
2023-02-20T03:08:48.735Z,5.7
2023-02-20T03:10:52.352Z,5.8
2023-02-20T03:12:59.030Z,5.8
2023-02-20T03:15:02.671Z,5.7
2023-02-20T03:17:06.294Z,5.8
2023-02-20T03:22:16.884Z,5.9
2023-02-20T03:28:30.827Z,6
2023-02-20T03:30:34.492Z,6
2023-02-20T03:32:38.073Z,6
2023-02-20T03:34:41.687Z,6.1
2023-02-20T03:36:45.326Z,6
2023-02-20T03:38:48.929Z,6.1
2023-02-20T03:40:55.645Z,6.1
2023-02-20T03:47:06.474Z,6.2
2023-02-20T03:53:17.356Z,6.2
2023-02-20T03:55:23.886Z,6.2
2023-02-20T03:57:27.507Z,6.2
2023-02-20T04:01:34.758Z,6.3
2023-02-20T04:07:45.565Z,6.3
2023-02-20T04:11:55.877Z,6.3
2023-02-20T04:15:02.807Z,6.3
2023-02-20T04:17:06.411Z,6.3
2023-02-20T04:21:13.684Z,6.4
2023-02-20T04:27:27.564Z,6.5
2023-02-20T04:31:34.806Z,6.6
2023-02-20T04:33:38.415Z,6.6
2023-02-20T04:35:42.011Z,6.6
2023-02-20T04:37:48.722Z,6.7
2023-02-20T04:39:52.302Z,6.6
2023-02-20T04:41:55.940Z,6.6
2023-02-20T04:52:17.090Z,6.9
2023-02-20T05:02:35.142Z,6.9
2023-02-20T05:04:38.822Z,6.9
2023-02-20T05:06:45.429Z,6.9
2023-02-20T05:08:50.222Z,6.9
2023-02-20T05:10:52.656Z,7
2023-02-20T05:13:17.097Z,7.1
2023-02-20T05:15:20.707Z,7
2023-02-20T05:17:24.275Z,7
2023-02-20T05:21:34.586Z,7.1
2023-02-20T05:23:38.196Z,7.1
2023-02-20T05:25:41.858Z,7.1
2023-02-20T05:27:45.427Z,7.1
2023-02-20T05:29:49.052Z,7.2
2023-02-20T05:31:52.737Z,7.1
2023-02-20T05:33:59.284Z,7.2
2023-02-20T05:36:02.872Z,7.2
2023-02-20T05:40:10.117Z,7.1
2023-02-20T05:44:17.303Z,7.2
2023-02-20T05:46:20.929Z,7.2
2023-02-20T05:48:27.566Z,7.2
2023-02-20T05:50:31.186Z,7.2
2023-02-20T05:52:34.793Z,7.2
2023-02-20T05:54:38.386Z,7.2
2023-02-20T05:58:45.624Z,7.3
2023-02-20T06:00:49.231Z,7.3
2023-02-20T06:02:55.880Z,7.2
2023-02-20T06:04:59.559Z,7.3
2023-02-20T06:07:03.112Z,7.3
2023-02-20T06:08:06.444Z,7.3
2023-02-20T06:18:27.545Z,7.3
2023-02-20T06:20:31.201Z,7.4
2023-02-20T06:22:34.762Z,7.4
2023-02-20T06:24:38.384Z,7.4
2023-02-20T06:28:45.576Z,7.4
2023-02-20T06:32:55.812Z,7.5
2023-02-20T06:34:59.457Z,7.5
2023-02-20T06:39:06.689Z,7.5
2023-02-20T06:41:10.302Z,7.4
2023-02-20T06:45:20.576Z,7.5
2023-02-20T06:47:24.139Z,7.5
2023-02-20T06:49:27.749Z,7.5
2023-02-20T06:51:31.349Z,7.6
2023-02-20T06:53:34.950Z,7.6
2023-02-20T06:55:38.557Z,7.6
2023-02-20T06:59:50.348Z,7.6
2023-02-20T07:01:54.030Z,7.6
2023-02-20T07:05:00.904Z,7.7
2023-02-20T07:07:04.557Z,7.7
2023-02-20T07:11:11.721Z,7.7
2023-02-20T07:13:18.362Z,7.7
2023-02-20T07:15:21.982Z,7.7
2023-02-20T07:17:25.567Z,7.7
2023-02-20T07:19:29.152Z,7.7
2023-02-20T07:23:36.371Z,7.8
2023-02-20T07:25:39.987Z,7.8
2023-02-20T07:27:46.636Z,7.8
2023-02-20T07:40:08.268Z,7.8
2023-02-20T07:44:18.496Z,7.8
2023-02-20T07:46:22.143Z,7.8
2023-02-20T07:56:43.163Z,7.9
2023-02-20T07:58:46.808Z,7.9
2023-02-20T08:00:50.366Z,8
2023-02-20T08:03:57.342Z,7.9
2023-02-20T08:10:11.494Z,7.9
2023-02-20T08:14:18.685Z,8
2023-02-20T08:16:22.283Z,7.9
2023-02-20T08:20:29.497Z,8
2023-02-20T08:24:39.812Z,8
2023-02-20T08:26:43.378Z,8.1
2023-02-20T08:28:46.985Z,8.1
2023-02-20T08:30:50.611Z,8.2
2023-02-20T08:32:54.407Z,8.2
2023-02-20T08:34:57.762Z,8.2
2023-02-20T08:39:08.137Z,8.4
2023-02-20T08:41:11.626Z,8.4
2023-02-20T08:45:18.843Z,8.5
2023-02-20T08:47:22.440Z,8.6
2023-02-20T08:49:27.237Z,8.6
2023-02-20T08:51:29.646Z,8.6
2023-02-20T08:53:36.339Z,8.6
2023-02-20T08:55:39.899Z,8.6
2023-02-20T08:57:43.517Z,8.5
2023-02-20T09:00:01.935Z,8.6
2023-02-20T09:04:09.111Z,8.6
2023-02-20T09:08:19.361Z,8.5
2023-02-20T09:10:22.965Z,8.5
2023-02-20T09:12:26.543Z,8.5
2023-02-20T09:14:30.174Z,8.6
2023-02-20T09:16:33.800Z,8.6
2023-02-20T09:18:37.338Z,8.6
2023-02-20T09:20:44.008Z,8.5
2023-02-20T09:22:47.561Z,8.5
2023-02-20T09:24:51.201Z,8.5
2023-02-20T09:26:56.928Z,8.5
2023-02-20T09:28:58.366Z,8.5
2023-02-20T09:31:01.953Z,8.5
2023-02-20T09:33:05.581Z,8.6
2023-02-20T09:35:12.218Z,8.6
2023-02-20T09:37:15.804Z,8.6
2023-02-20T09:39:19.388Z,8.6
2023-02-20T09:41:22.988Z,8.6
2023-02-20T09:43:26.612Z,8.6
2023-02-20T09:45:30.210Z,8.6
2023-02-20T09:47:33.782Z,8.6
2023-02-20T09:49:40.442Z,8.5
2023-02-20T09:51:43.974Z,8.5
2023-02-20T09:53:47.574Z,8.5
2023-02-20T09:54:50.916Z,8.5
2023-02-20T09:56:54.480Z,8.5
2023-02-20T09:58:58.057Z,8.5
2023-02-20T10:01:01.723Z,8.5
2023-02-20T10:03:08.460Z,8.5
2023-02-20T10:05:11.938Z,8.5
2023-02-20T10:09:19.087Z,8.5
2023-02-20T10:11:22.670Z,8.5
2023-02-20T10:13:26.279Z,8.5
2023-02-20T10:15:29.877Z,8.5
2023-02-20T10:19:40.120Z,8.5
2023-02-20T10:23:49.355Z,8.5
2023-02-20T10:25:50.847Z,8.6
2023-02-20T10:29:58.032Z,8.6
2023-02-20T10:32:04.695Z,8.6
2023-02-20T10:34:08.288Z,8.7
2023-02-20T10:36:12.236Z,8.7
2023-02-20T10:40:18.991Z,8.8
2023-02-20T10:42:22.636Z,8.8
2023-02-20T10:44:26.199Z,8.8
2023-02-20T10:46:46.792Z,8.8
2023-02-20T10:48:36.480Z,8.8
2023-02-20T10:50:40.102Z,8.8
2023-02-20T10:51:43.401Z,8.8
2023-02-20T10:53:46.995Z,8.7
2023-02-20T10:55:50.591Z,8.8
2023-02-20T10:57:54.149Z,8.7
2023-02-20T11:00:00.806Z,8.7
2023-02-20T11:02:04.453Z,8.7
2023-02-20T11:04:08.026Z,8.7
2023-02-20T11:08:15.168Z,8.7
2023-02-20T11:10:18.872Z,8.7
2023-02-20T11:18:36.162Z,8.8
2023-02-20T11:20:39.717Z,8.7
2023-02-20T11:22:43.335Z,8.7
2023-02-20T11:24:46.958Z,8.7
2023-02-20T11:26:50.511Z,8.7
2023-02-20T11:28:57.214Z,8.7
2023-02-20T11:31:00.798Z,8.6
2023-02-20T11:33:04.324Z,8.7
2023-02-20T11:43:25.321Z,8.6
2023-02-20T11:48:35.835Z,8.6
2023-02-20T11:50:39.373Z,8.7
2023-02-20T11:52:42.987Z,8.7
2023-02-20T11:54:46.584Z,8.7
2023-02-20T11:56:53.237Z,8.7
2023-02-20T11:58:56.812Z,8.7
2023-02-20T12:01:00.423Z,8.7
2023-02-20T12:03:04.008Z,8.6
2023-02-20T12:05:07.586Z,8.6
2023-02-20T12:09:14.782Z,8.7
2023-02-20T12:11:21.402Z,8.7
2023-02-20T12:13:24.990Z,8.7
2023-02-20T12:15:28.576Z,8.8
2023-02-20T12:17:32.167Z,8.8
2023-02-20T12:19:35.745Z,8.8
2023-02-20T12:21:39.357Z,8.8
2023-02-20T12:23:42.933Z,8.8
2023-02-20T12:25:49.582Z,8.8
2023-02-20T12:27:53.152Z,8.7
2023-02-20T12:29:56.744Z,8.8
2023-02-20T12:32:00.478Z,8.8
2023-02-20T12:34:03.898Z,8.8
2023-02-20T12:36:07.479Z,8.8
2023-02-20T12:38:11.078Z,8.8
2023-02-20T12:40:17.931Z,8.8
2023-02-20T12:42:21.307Z,8.8
2023-02-20T12:44:24.891Z,8.9
2023-02-20T12:46:49.117Z,8.9
2023-02-20T12:48:52.642Z,8.8
2023-02-20T12:50:56.219Z,8.9
2023-02-20T12:53:04.390Z,8.9
2023-02-20T12:55:07.973Z,8.9
2023-02-20T12:57:11.556Z,8.8
2023-02-20T12:59:15.125Z,8.9
2023-02-20T13:01:27.698Z,8.9
2023-02-20T13:03:22.329Z,8.9
2023-02-20T13:05:25.858Z,9
2023-02-20T13:07:32.553Z,9
2023-02-20T13:11:39.663Z,9.1
2023-02-20T13:13:43.253Z,9.1
2023-02-20T13:15:46.826Z,9.1
2023-02-20T13:17:50.391Z,9.1
2023-02-20T13:19:53.989Z,9.1
2023-02-20T13:22:00.595Z,9.2
2023-02-20T13:24:04.282Z,9.2
2023-02-20T13:26:07.809Z,9.2
2023-02-20T13:30:15.003Z,9.3
2023-02-20T13:32:18.631Z,9.4
2023-02-20T13:36:28.899Z,9.3
2023-02-20T13:38:32.347Z,9.3
2023-02-20T13:40:35.929Z,9.3
2023-02-20T13:45:46.458Z,9.4
2023-02-20T13:47:50.003Z,9.3
2023-02-20T13:49:58.519Z,9.3
2023-02-20T13:52:00.371Z,9.4
2023-02-20T13:54:03.807Z,9.4
2023-02-20T13:56:07.344Z,9.4
2023-02-20T13:58:10.930Z,9.4
2023-02-20T14:00:14.499Z,9.4
2023-02-20T14:02:18.216Z,9.4
2023-02-20T14:04:24.758Z,9.4
2023-02-20T14:06:28.319Z,9.5
2023-02-20T14:08:31.885Z,9.5
2023-02-20T14:10:35.479Z,9.4
2023-02-20T14:12:39.121Z,9.5
2023-02-20T14:14:42.669Z,9.5
2023-02-20T14:16:46.274Z,9.5
2023-02-20T14:18:52.824Z,9.5
2023-02-20T14:20:56.405Z,9.5
2023-02-20T14:22:59.987Z,9.4
2023-02-20T14:25:03.571Z,9.4
2023-02-20T14:31:14.346Z,9.3
2023-02-20T14:35:24.517Z,9.3
2023-02-20T14:37:28.106Z,9.3
2023-02-20T14:38:31.408Z,9.2
2023-02-20T14:40:34.993Z,9.3
2023-02-20T14:42:38.596Z,9.2
2023-02-20T14:46:48.797Z,9.2
2023-02-20T14:48:52.366Z,9.2
2023-02-20T14:50:55.933Z,9.3
2023-02-20T14:52:59.523Z,9.2
2023-02-20T14:57:06.667Z,9.1
2023-02-20T15:01:17.281Z,9.1
2023-02-20T15:03:29.481Z,9.2
2023-02-20T15:05:24.334Z,9.1
2023-02-20T15:07:27.901Z,9.2
2023-02-20T15:09:31.447Z,9.2
2023-02-20T15:11:35.056Z,9.2
2023-02-20T15:13:38.634Z,9.1
2023-02-20T15:15:45.337Z,9.1
2023-02-20T15:17:48.873Z,9.1
2023-02-20T15:21:55.995Z,9.1
2023-02-20T15:23:59.614Z,9.1
2023-02-20T15:26:03.210Z,9.1
2023-02-20T15:28:06.862Z,9.1
2023-02-20T15:30:13.529Z,9
2023-02-20T15:34:20.601Z,9
2023-02-20T15:35:23.925Z,9
2023-02-20T15:41:34.667Z,8.9
2023-02-20T15:43:48.232Z,8.9
2023-02-20T15:45:44.904Z,8.9
2023-02-20T15:47:48.463Z,8.9
2023-02-20T15:49:52.051Z,8.9
2023-02-20T15:52:01.702Z,8.8
2023-02-20T15:53:59.256Z,8.9
2023-02-20T15:56:02.834Z,8.9
2023-02-20T15:58:14.034Z,8.8
2023-02-20T16:00:13.071Z,8.8
2023-02-20T16:02:16.717Z,8.8
2023-02-20T16:04:20.218Z,8.8
2023-02-20T16:06:23.884Z,8.8
2023-02-20T16:08:27.378Z,8.8
2023-02-20T16:10:30.991Z,8.8
2023-02-20T16:12:37.645Z,8.8
2023-02-20T16:14:41.179Z,8.7
2023-02-20T16:16:44.831Z,8.7
2023-02-20T16:18:48.379Z,8.7
2023-02-20T16:20:52.130Z,8.7
2023-02-20T16:22:55.548Z,8.7
2023-02-20T16:24:59.139Z,8.7
2023-02-20T16:27:12.337Z,8.7
2023-02-20T16:29:09.389Z,8.6
2023-02-20T16:31:13.129Z,8.6
2023-02-20T16:33:41.010Z,8.6
2023-02-20T16:35:44.621Z,8.6
2023-02-20T16:37:48.187Z,8.6
2023-02-20T16:39:54.941Z,8.6
2023-02-20T16:44:03.496Z,8.6
2023-02-20T16:46:05.612Z,8.6
2023-02-20T16:48:09.235Z,8.6
2023-02-20T16:52:16.383Z,8.6
2023-02-20T16:54:23.033Z,8.6
2023-02-20T16:56:26.626Z,8.6
2023-02-20T16:58:30.181Z,8.6
2023-02-20T17:00:33.796Z,8.6
2023-02-20T17:02:37.365Z,8.6
2023-02-20T17:04:41.035Z,8.6
2023-02-20T17:06:44.579Z,8.6
2023-02-20T17:12:58.408Z,8.5
2023-02-20T17:15:01.977Z,8.6
2023-02-20T17:17:05.562Z,8.6
2023-02-20T17:21:13.067Z,8.6
2023-02-20T17:23:19.411Z,8.5
2023-02-20T17:27:26.580Z,8.5
2023-02-20T17:28:29.917Z,8.5
2023-02-20T17:30:33.522Z,8.6
2023-02-20T17:32:37.073Z,8.5
2023-02-20T17:34:40.611Z,8.6
2023-02-20T17:36:47.302Z,8.5
2023-02-20T17:38:50.908Z,8.6
2023-02-20T17:40:54.476Z,8.5
2023-02-20T17:42:58.066Z,8.5
2023-02-20T17:45:01.661Z,8.5
2023-02-20T17:47:05.190Z,8.6
2023-02-20T17:51:15.540Z,8.5
2023-02-20T17:57:26.166Z,8.4
2023-02-20T17:59:29.712Z,8.5
2023-02-20T18:01:33.349Z,8.5
2023-02-20T18:03:36.925Z,8.4
2023-02-20T18:05:43.569Z,8.3
2023-02-20T18:07:47.142Z,8.4
2023-02-20T18:09:50.665Z,8.3
2023-02-20T18:11:54.265Z,8.2
2023-02-20T18:13:57.800Z,8.2
2023-02-20T18:16:01.436Z,8.3
2023-02-20T18:18:05.082Z,8.3
2023-02-20T18:22:15.183Z,8.4
2023-02-20T18:24:18.752Z,8.4
2023-02-20T18:27:25.640Z,8.4
2023-02-20T18:29:30.149Z,8.3
2023-02-20T18:31:32.914Z,8.3
2023-02-20T18:33:39.474Z,8.4
2023-02-20T18:37:46.657Z,8.2
2023-02-20T18:39:50.228Z,8.2
2023-02-20T18:41:53.796Z,8.1
2023-02-20T18:43:57.418Z,8.2
2023-02-20T18:46:01.004Z,8.2
2023-02-20T18:52:16.319Z,8.3
2023-02-20T18:56:23.465Z,8.3
2023-02-20T18:58:27.068Z,8.3
2023-02-20T19:02:37.319Z,8.3
2023-02-20T19:06:44.727Z,8.3
2023-02-20T19:08:48.054Z,8.3
2023-02-20T19:10:51.601Z,8.3
2023-02-20T19:12:55.209Z,8.3
2023-02-20T19:14:58.750Z,8.2
2023-02-20T19:17:05.447Z,8.3
2023-02-20T19:19:08.990Z,8.2
2023-02-20T19:21:12.616Z,8.3
2023-02-20T19:22:15.950Z,8.3
2023-02-20T19:24:19.529Z,8.3
2023-02-20T19:26:23.080Z,8.3
2023-02-20T19:28:26.741Z,8.3
2023-02-20T19:30:33.386Z,8.3
2023-02-20T19:32:36.990Z,8.2
2023-02-20T19:34:40.494Z,8.3
2023-02-20T19:36:44.110Z,8.3
2023-02-20T19:38:47.670Z,8.2
2023-02-20T19:40:51.283Z,8.3
2023-02-20T19:42:54.852Z,8.3
2023-02-20T19:45:01.513Z,8.4
2023-02-20T19:47:05.094Z,8.3
2023-02-20T19:51:12.244Z,8.3
2023-02-20T19:53:15.836Z,8.2
2023-02-20T19:55:19.451Z,8.4
2023-02-20T19:57:23.030Z,8.2
2023-02-20T19:59:29.712Z,8.3
2023-02-20T20:01:33.322Z,8.2
2023-02-20T20:03:36.818Z,8.4
2023-02-20T20:05:40.439Z,8.3
2023-02-20T20:07:44.013Z,8.3
2023-02-20T20:09:47.598Z,8.4
2023-02-20T20:11:51.214Z,8.4
2023-02-20T20:13:57.867Z,8.4
2023-02-20T20:16:01.436Z,8.3
2023-02-20T20:18:05.035Z,8.4
2023-02-20T20:20:29.467Z,8.3
2023-02-20T20:22:33.011Z,8.3
2023-02-20T20:24:36.556Z,8.3
2023-02-20T20:28:46.830Z,8.4
2023-02-20T20:34:57.608Z,8.4
2023-02-20T20:37:01.202Z,8.4
2023-02-20T20:41:11.783Z,8.3
2023-02-20T20:43:15.009Z,8.4
2023-02-20T20:45:18.598Z,8.4
2023-02-20T20:47:22.178Z,8.3
2023-02-20T20:49:25.799Z,8.3
2023-02-20T20:51:29.354Z,8.3
2023-02-20T20:53:32.927Z,8.3
2023-02-20T20:55:39.593Z,8.4
2023-02-20T20:57:43.186Z,8.4
2023-02-20T20:59:46.746Z,8.3
2023-02-20T21:01:50.412Z,8.3
2023-02-20T21:05:57.533Z,8.3
2023-02-20T21:08:01.153Z,8.4
2023-02-20T21:10:07.804Z,8.3
2023-02-20T21:12:11.367Z,8.4
2023-02-20T21:14:14.936Z,8.3
2023-02-20T21:15:18.266Z,8.3
2023-02-20T21:19:25.478Z,8.3
2023-02-20T21:21:29.091Z,8.4
2023-02-20T21:23:35.710Z,8.4
2023-02-20T21:25:39.304Z,8.4
2023-02-20T21:27:42.899Z,8.3
2023-02-20T21:29:46.509Z,8.3
2023-02-20T21:31:50.095Z,8.4
2023-02-20T21:35:57.270Z,8.5
2023-02-20T21:38:03.931Z,8.4
2023-02-20T21:40:07.511Z,8.3
2023-02-20T21:42:11.109Z,8.4
2023-02-20T21:44:14.671Z,8.4
2023-02-20T21:46:18.318Z,8.5
2023-02-20T21:50:25.450Z,8.5
2023-02-20T21:54:35.745Z,8.4
2023-02-20T22:00:46.473Z,8.4
2023-02-20T22:02:50.082Z,8.5
2023-02-20T22:11:07.464Z,8.6
2023-02-20T22:12:10.775Z,8.4
2023-02-20T22:14:14.277Z,8.6
2023-02-20T22:20:28.115Z,8.6
2023-02-20T22:24:38.658Z,8.5
2023-02-20T22:28:42.460Z,8.5
2023-02-20T22:32:49.672Z,8.6
2023-02-20T22:35:09.286Z,8.5
2023-02-20T22:36:59.940Z,8.5
2023-02-20T22:39:03.529Z,8.5
2023-02-20T22:41:07.127Z,8.6
2023-02-20T22:45:14.317Z,8.6
2023-02-20T22:47:17.890Z,8.5
2023-02-20T22:49:24.556Z,8.5
2023-02-20T22:51:28.149Z,8.6
2023-02-20T22:55:35.314Z,8.6
2023-02-20T22:57:38.887Z,8.7
2023-02-20T22:59:42.500Z,8.6
2023-02-20T23:01:46.082Z,8.5
2023-02-20T23:03:52.743Z,8.5
2023-02-20T23:06:00.511Z,8.7
2023-02-20T23:07:59.934Z,8.6
2023-02-20T23:19:24.253Z,8.6
2023-02-20T23:21:27.819Z,8.5
2023-02-20T23:23:31.431Z,8.6
2023-02-20T23:25:35.013Z,8.7
2023-02-20T23:27:38.533Z,8.7
2023-02-20T23:29:42.142Z,8.6
2023-02-20T23:35:56.022Z,8.5
2023-02-20T23:44:10.360Z,8.7
2023-02-20T23:46:17.029Z,8.5
2023-02-20T23:48:20.614Z,8.6
2023-02-20T23:50:24.182Z,8.5
2023-02-20T23:52:27.767Z,8.6
2023-02-20T23:54:31.363Z,8.6
2023-02-20T23:56:34.940Z,8.7
2023-02-20T23:58:38.522Z,8.6
